createdAt,value
2018-05-11T00:00:55.221Z,70.15
2018-05-11T00:03:22.952Z,69.82
2018-05-11T00:05:50.642Z,69.92
2018-05-11T00:08:18.381Z,69.51
2018-05-11T00:10:46.197Z,69.00
2018-05-11T00:13:13.873Z,68.79
2018-05-11T00:15:41.565Z,68.53
2018-05-11T00:18:09.205Z,68.32
2018-05-11T00:20:36.856Z,68.24
2018-05-11T00:23:04.534Z,69.21
2018-05-11T00:25:32.174Z,69.41
2018-05-11T00:27:59.817Z,69.90
2018-05-11T00:30:27.584Z,69.94
2018-05-11T00:32:55.232Z,70.15
2018-05-11T00:35:22.886Z,70.33
2018-05-11T00:37:50.562Z,70.43
2018-05-11T00:40:18.185Z,71.55
2018-05-11T00:42:45.886Z,71.62
2018-05-11T00:45:13.545Z,71.90
2018-05-11T00:47:41.193Z,71.63
2018-05-11T00:50:08.952Z,71.44
2018-05-11T00:52:36.647Z,71.13
2018-05-11T00:55:15.929Z,72.22
2018-05-11T00:57:43.613Z,72.53
2018-05-11T01:00:11.291Z,72.87
2018-05-11T01:02:39.029Z,73.36
2018-05-11T01:05:06.753Z,73.46
2018-05-11T01:07:34.388Z,73.61
2018-05-11T01:10:02.195Z,74.23
2018-05-11T01:12:29.828Z,74.53
2018-05-11T01:14:57.585Z,74.14
2018-05-11T01:17:25.258Z,73.92
2018-05-11T01:19:52.900Z,74.01
2018-05-11T01:22:20.506Z,73.74
2018-05-11T01:24:48.167Z,74.44
2018-05-11T01:27:15.797Z,74.69
2018-05-11T01:29:43.420Z,74.97
2018-05-11T01:32:11.074Z,74.95
2018-05-11T01:34:38.700Z,74.22
2018-05-11T01:37:06.513Z,74.23
2018-05-11T01:39:34.224Z,74.17
2018-05-11T01:42:01.890Z,74.04
2018-05-11T01:44:29.492Z,74.47
2018-05-11T01:46:57.148Z,74.64
2018-05-11T01:49:24.762Z,74.78
2018-05-11T01:51:52.438Z,75.32
2018-05-11T01:54:20.146Z,75.76
2018-05-11T01:56:47.869Z,76.16
2018-05-11T01:59:15.683Z,76.09
2018-05-11T02:01:43.385Z,75.67
2018-05-11T02:04:10.994Z,75.62
2018-05-11T02:06:38.906Z,75.32
2018-05-11T02:09:06.549Z,75.17
2018-05-11T02:11:34.316Z,75.42
2018-05-11T02:14:01.954Z,75.37
2018-05-11T02:16:29.677Z,75.11
2018-05-11T02:18:57.360Z,75.20
2018-05-11T02:21:25.156Z,75.54
2018-05-11T02:23:52.841Z,75.36
2018-05-11T02:26:20.535Z,75.71
2018-05-11T02:28:48.233Z,75.57
2018-05-11T02:31:15.903Z,75.77
2018-05-11T02:33:43.594Z,76.21
2018-05-11T02:36:11.294Z,76.31
2018-05-11T02:38:39.010Z,76.25
2018-05-11T02:41:06.673Z,76.89
2018-05-11T02:43:34.418Z,76.12
2018-05-11T02:46:02.029Z,75.31
2018-05-11T02:48:29.793Z,76.05
2018-05-11T02:50:57.401Z,76.97
2018-05-11T02:53:25.109Z,76.93
2018-05-11T02:55:52.741Z,76.41
2018-05-11T02:58:20.397Z,75.64
2018-05-11T03:00:48.048Z,75.03
2018-05-11T03:03:15.717Z,74.98
2018-05-11T03:05:43.326Z,75.25
2018-05-11T03:08:10.948Z,75.20
2018-05-11T03:10:38.581Z,75.25
2018-05-11T03:13:06.208Z,74.77
2018-05-11T03:15:33.856Z,74.64
2018-05-11T03:18:01.460Z,74.74
2018-05-11T03:20:29.120Z,75.10
2018-05-11T03:22:56.858Z,74.95
2018-05-11T03:25:24.531Z,74.25
2018-05-11T03:27:52.329Z,74.58
2018-05-11T03:30:19.988Z,75.39
2018-05-11T03:32:47.591Z,75.73
2018-05-11T03:35:15.370Z,76.66
2018-05-11T03:37:43.038Z,77.32
2018-05-11T03:40:10.673Z,77.75
2018-05-11T03:42:38.326Z,78.06
2018-05-11T03:45:05.966Z,78.42
2018-05-11T03:47:33.720Z,79.11
2018-05-11T03:50:01.357Z,78.58
2018-05-11T03:52:29.021Z,77.74
2018-05-11T03:54:56.704Z,77.21
2018-05-11T03:57:24.373Z,76.39
2018-05-11T03:59:52.100Z,76.65
2018-05-11T04:02:31.222Z,77.01
2018-05-11T04:05:10.478Z,77.99
2018-05-11T04:07:49.748Z,78.69
2018-05-11T04:10:17.535Z,78.21
2018-05-11T04:12:45.419Z,77.17
2018-05-11T04:15:15.087Z,76.19
2018-05-11T04:17:42.845Z,75.69
2018-05-11T04:20:10.505Z,75.70
2018-05-11T04:22:38.218Z,75.59
2018-05-11T04:25:05.824Z,76.85
2018-05-11T04:27:33.594Z,76.92
2018-05-11T04:30:01.318Z,76.58
2018-05-11T04:32:29.067Z,75.88
2018-05-11T04:34:56.718Z,75.48
2018-05-11T04:37:24.424Z,75.63
2018-05-11T04:39:52.080Z,75.17
2018-05-11T04:42:19.841Z,74.97
2018-05-11T04:44:47.480Z,74.78
2018-05-11T04:47:15.309Z,74.60
2018-05-11T04:49:43.047Z,74.74
2018-05-11T04:52:10.679Z,75.72
2018-05-11T04:54:38.360Z,75.89
2018-05-11T04:57:06.056Z,74.86
2018-05-11T04:59:33.710Z,74.13
2018-05-11T05:02:01.339Z,73.76
2018-05-11T05:04:29.044Z,73.97
2018-05-11T05:06:56.772Z,74.19
2018-05-11T05:09:24.526Z,75.58
2018-05-11T05:11:52.153Z,77.35
2018-05-11T05:14:19.847Z,77.90
2018-05-11T05:16:47.496Z,78.80
2018-05-11T05:19:15.202Z,79.64
2018-05-11T05:21:42.824Z,79.04
2018-05-11T05:24:10.436Z,79.30
2018-05-11T05:26:38.112Z,79.16
2018-05-11T05:29:05.756Z,79.04
2018-05-11T05:31:33.407Z,78.94
2018-05-11T05:34:01.013Z,79.08
2018-05-11T05:36:28.680Z,79.79
2018-05-11T05:38:56.281Z,80.38
2018-05-11T05:41:23.959Z,80.40
2018-05-11T05:43:51.671Z,80.15
2018-05-11T05:46:19.318Z,80.46
2018-05-11T05:48:46.950Z,79.72
2018-05-11T05:51:14.598Z,79.09
2018-05-11T05:53:42.225Z,79.19
2018-05-11T05:56:10.200Z,78.55
2018-05-11T05:58:37.882Z,77.66
2018-05-11T06:01:05.666Z,76.99
2018-05-11T06:03:33.351Z,77.08
2018-05-11T06:06:01.123Z,76.96
2018-05-11T06:08:28.806Z,76.30
2018-05-11T06:10:56.673Z,75.79
2018-05-11T06:13:24.221Z,75.73
2018-05-11T06:15:51.841Z,76.16
2018-05-11T06:18:19.557Z,76.23
2018-05-11T06:20:47.482Z,76.28
2018-05-11T06:23:15.477Z,76.17
2018-05-11T06:25:43.412Z,76.03
2018-05-11T06:28:11.129Z,75.61
2018-05-11T06:30:38.864Z,75.11
2018-05-11T06:33:07.453Z,74.33
2018-05-11T06:35:35.165Z,74.00
2018-05-11T06:38:03.235Z,73.09
2018-05-11T06:40:30.918Z,72.12
2018-05-11T06:42:58.900Z,72.52
2018-05-11T06:45:26.713Z,72.43
2018-05-11T06:47:54.360Z,72.88
2018-05-11T06:50:22.098Z,72.47
2018-05-11T06:52:49.821Z,72.99
2018-05-11T06:55:17.539Z,72.77
2018-05-11T06:57:45.262Z,71.74
2018-05-11T07:00:12.957Z,71.67
2018-05-11T07:02:40.819Z,71.56
2018-05-11T07:05:08.542Z,71.79
2018-05-11T07:07:36.334Z,71.81
2018-05-11T07:10:04.541Z,71.52
2018-05-11T07:12:32.152Z,71.46
2018-05-11T07:15:00.094Z,71.17
2018-05-11T07:17:28.046Z,70.72
2018-05-11T07:19:55.800Z,70.54
2018-05-11T07:22:23.437Z,71.19
2018-05-11T07:24:51.971Z,70.84
2018-05-11T07:27:20.384Z,70.77
2018-05-11T07:29:48.460Z,70.52
2018-05-11T07:32:18.290Z,69.88
2018-05-11T07:34:45.937Z,69.69
2018-05-11T07:37:13.650Z,69.67
2018-05-11T07:39:41.297Z,69.81
2018-05-11T07:42:08.964Z,69.39
2018-05-11T07:44:36.789Z,69.19
2018-05-11T07:47:04.427Z,68.64
2018-05-11T07:49:32.039Z,68.56
2018-05-11T07:51:59.689Z,67.95
2018-05-11T07:54:27.317Z,67.32
2018-05-11T07:56:54.960Z,66.83
2018-05-11T07:59:23.080Z,66.44
2018-05-11T08:01:50.741Z,67.01
2018-05-11T08:04:18.369Z,66.45
2018-05-11T08:06:46.021Z,65.54
2018-05-11T08:09:13.664Z,65.48
2018-05-11T08:11:41.318Z,64.77
2018-05-11T08:14:08.985Z,64.84
2018-05-11T08:16:37.081Z,63.72
2018-05-11T08:19:04.703Z,63.89
2018-05-11T08:21:32.333Z,64.06
2018-05-11T08:23:59.984Z,64.76
2018-05-11T08:26:27.821Z,64.12
2018-05-11T08:28:55.440Z,63.86
2018-05-11T08:31:23.104Z,64.12
2018-05-11T08:33:50.774Z,64.69
2018-05-11T08:36:18.517Z,64.29
2018-05-11T08:38:46.173Z,64.49
2018-05-11T08:41:13.872Z,64.23
2018-05-11T08:43:41.555Z,63.39
2018-05-11T08:46:09.273Z,62.85
2018-05-11T08:48:36.990Z,61.76
2018-05-11T08:51:04.697Z,60.21
2018-05-11T08:53:32.352Z,60.76
2018-05-11T08:56:00.000Z,61.31
2018-05-11T08:58:27.674Z,61.32
2018-05-11T09:00:55.332Z,60.92
2018-05-11T09:03:23.117Z,61.82
2018-05-11T09:05:50.783Z,59.85
2018-05-11T09:08:18.485Z,59.33
2018-05-11T09:10:46.085Z,59.59
2018-05-11T09:13:13.740Z,59.58
2018-05-11T09:15:41.349Z,59.15
2018-05-11T09:18:09.069Z,59.14
2018-05-11T09:20:36.719Z,60.15
2018-05-11T09:23:04.393Z,59.13
2018-05-11T09:25:32.045Z,58.57
2018-05-11T09:27:59.812Z,58.38
2018-05-11T09:30:27.441Z,58.26
2018-05-11T09:32:55.217Z,57.22
2018-05-11T09:35:22.874Z,57.25
2018-05-11T09:37:50.538Z,57.30
2018-05-11T09:40:18.216Z,57.60
2018-05-11T09:42:45.864Z,57.85
2018-05-11T09:45:13.667Z,57.63
2018-05-11T09:47:41.297Z,56.79
2018-05-11T09:50:08.982Z,56.98
2018-05-11T09:52:36.677Z,57.10
2018-05-11T09:55:04.577Z,57.48
2018-05-11T09:57:32.173Z,58.09
2018-05-11T09:59:59.862Z,57.86
2018-05-11T10:02:27.473Z,57.15
2018-05-11T10:04:55.137Z,56.61
2018-05-11T10:07:22.801Z,57.03
2018-05-11T10:09:50.505Z,57.14
2018-05-11T10:12:18.160Z,55.88
2018-05-11T10:14:45.817Z,55.83
2018-05-11T10:17:13.416Z,55.80
2018-05-11T10:19:41.085Z,55.75
2018-05-11T10:22:08.692Z,54.28
2018-05-11T10:24:36.325Z,53.72
2018-05-11T10:27:04.107Z,53.46
2018-05-11T10:29:31.727Z,53.53
2018-05-11T10:31:59.375Z,52.38
2018-05-11T10:34:27.089Z,51.42
2018-05-11T10:36:54.669Z,51.40
2018-05-11T10:39:22.977Z,49.65
2018-05-11T10:41:51.068Z,51.74
2018-05-11T10:44:19.824Z,48.34
2018-05-11T10:46:47.512Z,49.89
2018-05-11T10:49:19.256Z,46.39
2018-05-11T10:51:46.968Z,47.83
2018-05-11T10:54:14.572Z,45.49
2018-05-11T10:56:42.217Z,45.97
2018-05-11T10:59:09.921Z,46.60
2018-05-11T11:01:37.620Z,46.49
2018-05-11T11:04:05.238Z,46.62
2018-05-11T11:06:32.908Z,44.83
2018-05-11T11:09:00.536Z,43.55
2018-05-11T11:11:28.253Z,43.75
2018-05-11T11:13:56.481Z,43.61
2018-05-11T11:16:24.125Z,45.29
2018-05-11T11:18:51.752Z,43.66
2018-05-11T11:21:19.375Z,43.23
2018-05-11T11:23:46.993Z,44.92
2018-05-11T11:26:14.606Z,43.54
2018-05-11T11:28:42.257Z,44.62
2018-05-11T11:31:09.876Z,43.84
2018-05-11T11:33:37.561Z,43.32
2018-05-11T11:36:05.165Z,43.93
2018-05-11T11:38:33.230Z,42.29
2018-05-11T11:41:00.891Z,42.22
2018-05-11T11:43:28.557Z,42.45
2018-05-11T11:45:56.229Z,41.61
2018-05-11T11:48:23.908Z,40.40
2018-05-11T11:50:51.525Z,39.89
2018-05-11T11:55:47.313Z,39.39
2018-05-11T11:58:14.973Z,38.66
2018-05-11T12:00:42.589Z,39.04
2018-05-11T12:03:10.235Z,38.41
2018-05-11T12:05:37.836Z,36.58
2018-05-11T12:08:05.613Z,37.49
2018-05-11T12:10:33.367Z,38.29
2018-05-11T12:13:00.954Z,37.16
2018-05-11T12:15:28.596Z,36.10
2018-05-11T12:17:56.264Z,35.97
2018-05-11T12:20:23.950Z,37.81
2018-05-11T12:22:51.554Z,36.38
2018-05-11T12:25:19.204Z,34.93
2018-05-11T12:27:46.813Z,35.98
2018-05-11T12:30:14.480Z,36.26
2018-05-11T12:32:42.197Z,36.98
2018-05-11T12:35:09.849Z,38.45
2018-05-11T12:37:37.473Z,35.44
2018-05-11T12:40:05.170Z,34.05
2018-05-11T12:42:32.793Z,32.19
2018-05-11T12:45:00.494Z,32.61
2018-05-11T12:47:28.084Z,31.28
2018-05-11T12:49:55.735Z,32.41
2018-05-11T12:52:23.359Z,31.83
2018-05-11T12:54:51.012Z,32.06
2018-05-11T12:57:18.717Z,34.22
2018-05-11T12:59:46.240Z,33.07
2018-05-11T13:02:13.898Z,35.10
2018-05-11T13:04:41.513Z,35.24
2018-05-11T13:07:09.259Z,35.48
2018-05-11T13:09:36.945Z,34.52
2018-05-11T13:12:04.591Z,33.94
2018-05-11T13:14:32.197Z,32.97
2018-05-11T13:16:59.984Z,33.14
2018-05-11T13:19:27.580Z,32.52
2018-05-11T13:21:55.311Z,32.18
2018-05-11T13:24:22.982Z,32.41
2018-05-11T13:26:50.649Z,32.64
2018-05-11T13:29:18.262Z,31.29
2018-05-11T13:31:46.206Z,32.72
2018-05-11T13:34:13.892Z,33.51
2018-05-11T13:36:41.669Z,33.77
2018-05-11T13:39:09.304Z,33.82
2018-05-11T13:41:36.965Z,33.40
2018-05-11T13:44:04.593Z,33.42
2018-05-11T13:46:32.206Z,33.71
2018-05-11T13:48:59.853Z,33.63
2018-05-11T13:51:27.527Z,30.82
2018-05-11T13:53:55.157Z,31.21
2018-05-11T13:56:22.901Z,29.53
2018-05-11T13:58:50.527Z,29.40
2018-05-11T14:01:18.113Z,30.72
2018-05-11T14:03:45.764Z,28.79
2018-05-11T14:06:13.357Z,29.79
2018-05-11T14:08:40.997Z,31.68
2018-05-11T14:11:08.662Z,32.86
2018-05-11T14:13:36.296Z,33.27
2018-05-11T14:16:03.883Z,33.32
2018-05-11T14:18:31.505Z,33.34
2018-05-11T14:20:59.121Z,34.82
2018-05-11T14:23:26.960Z,32.85
2018-05-11T14:25:54.698Z,33.47
2018-05-11T14:28:22.500Z,34.17
2018-05-11T14:30:50.145Z,34.16
2018-05-11T14:33:17.819Z,34.55
2018-05-11T14:35:45.416Z,34.23
2018-05-11T14:38:13.043Z,33.52
2018-05-11T14:40:40.757Z,33.95
2018-05-11T14:43:08.370Z,34.10
2018-05-11T14:45:36.017Z,33.43
2018-05-11T14:48:03.627Z,33.05
2018-05-11T14:50:31.285Z,33.73
2018-05-11T14:52:58.945Z,32.91
2018-05-11T14:55:26.587Z,33.76
2018-05-11T14:57:54.221Z,34.17
2018-05-11T15:00:21.892Z,32.98
2018-05-11T15:02:49.634Z,32.71
2018-05-11T15:05:17.307Z,32.31
2018-05-11T15:07:44.999Z,30.52
2018-05-11T15:10:12.744Z,31.56
2018-05-11T15:12:40.305Z,31.69
2018-05-11T15:15:08.089Z,31.55
2018-05-11T15:17:35.701Z,32.83
2018-05-11T15:20:03.392Z,32.74
2018-05-11T15:22:31.003Z,33.89
2018-05-11T15:24:58.604Z,33.37
2018-05-11T15:27:26.237Z,34.04
2018-05-11T15:29:53.954Z,35.64
2018-05-11T15:32:21.637Z,35.16
2018-05-11T15:34:49.261Z,34.61
2018-05-11T15:37:16.918Z,34.71
2018-05-11T15:39:44.537Z,34.01
2018-05-11T15:42:12.313Z,33.68
2018-05-11T15:44:39.929Z,32.85
2018-05-11T15:47:07.590Z,32.38
2018-05-11T15:49:35.307Z,33.68
2018-05-11T15:52:02.956Z,33.76
2018-05-11T15:54:30.643Z,34.25
2018-05-11T15:56:58.303Z,35.37
2018-05-11T15:59:25.893Z,35.59
2018-05-11T16:01:53.533Z,35.59
2018-05-11T16:04:21.145Z,36.11
2018-05-11T16:06:48.789Z,34.93
2018-05-11T16:09:16.415Z,35.11
2018-05-11T16:11:44.073Z,34.33
2018-05-11T16:14:11.692Z,34.69
2018-05-11T16:16:39.387Z,34.89
2018-05-11T16:19:07.130Z,34.05
2018-05-11T16:21:34.739Z,35.17
2018-05-11T16:24:02.385Z,34.53
2018-05-11T16:26:30.038Z,34.67
2018-05-11T16:28:57.716Z,34.68
2018-05-11T16:31:25.396Z,34.98
2018-05-11T16:33:53.041Z,35.39
2018-05-11T16:36:20.701Z,35.22
2018-05-11T16:38:48.405Z,35.75
2018-05-11T16:41:16.018Z,35.27
2018-05-11T16:43:43.677Z,35.84
2018-05-11T16:46:11.281Z,35.78
2018-05-11T16:48:38.950Z,36.18
2018-05-11T16:51:06.709Z,35.86
2018-05-11T16:53:34.312Z,35.75
2018-05-11T16:56:01.906Z,36.40
2018-05-11T16:58:29.630Z,36.76
2018-05-11T17:00:57.256Z,37.03
2018-05-11T17:03:24.997Z,37.09
2018-05-11T17:05:52.633Z,37.14
2018-05-11T17:08:20.355Z,35.34
2018-05-11T17:10:48.043Z,35.00
2018-05-11T17:13:15.638Z,35.29
2018-05-11T17:15:43.269Z,35.29
2018-05-11T17:18:11.060Z,35.80
2018-05-11T17:20:38.858Z,35.92
2018-05-11T17:23:06.475Z,36.27
2018-05-11T17:25:34.165Z,36.00
2018-05-11T17:28:01.838Z,35.65
2018-05-11T17:30:29.498Z,36.62
2018-05-11T17:32:57.105Z,36.20
2018-05-11T17:35:24.752Z,36.14
2018-05-11T17:37:52.604Z,35.89
2018-05-11T17:40:20.255Z,35.78
2018-05-11T17:42:47.887Z,36.02
2018-05-11T17:45:15.530Z,36.14
2018-05-11T17:47:43.171Z,36.98
2018-05-11T17:50:10.997Z,37.37
2018-05-11T17:52:38.630Z,37.50
2018-05-11T17:55:06.359Z,37.60
2018-05-11T17:57:34.097Z,37.54
2018-05-11T18:00:01.752Z,38.09
2018-05-11T18:02:29.375Z,37.55
2018-05-11T18:04:57.020Z,37.75
2018-05-11T18:07:24.719Z,37.67
2018-05-11T18:09:52.384Z,38.54
2018-05-11T18:12:20.053Z,38.00
2018-05-11T18:14:47.688Z,38.27
2018-05-11T18:17:15.344Z,38.10
2018-05-11T18:19:43.084Z,38.25
2018-05-11T18:22:10.759Z,38.57
2018-05-11T18:24:38.526Z,39.05
2018-05-11T18:27:06.183Z,38.87
2018-05-11T18:29:33.786Z,38.68
2018-05-11T18:32:01.444Z,39.04
2018-05-11T18:34:29.049Z,39.12
2018-05-11T18:36:56.785Z,39.10
2018-05-11T18:39:24.424Z,39.32
2018-05-11T18:41:52.060Z,39.86
2018-05-11T18:44:19.698Z,40.27
2018-05-11T18:46:47.421Z,40.27
2018-05-11T18:49:15.029Z,40.42
2018-05-11T18:51:42.737Z,41.62
2018-05-11T18:54:10.630Z,41.16
2018-05-11T18:56:37.996Z,41.50
2018-05-11T18:59:05.597Z,42.19
2018-05-11T19:01:33.297Z,41.79
2018-05-11T19:04:00.893Z,42.56
2018-05-11T19:06:28.497Z,41.83
2018-05-11T19:08:56.316Z,42.14
2018-05-11T19:11:23.859Z,42.57
2018-05-11T19:13:51.529Z,42.71
2018-05-11T19:16:19.116Z,43.13
2018-05-11T19:18:46.775Z,44.61
2018-05-11T19:21:14.536Z,43.28
2018-05-11T19:23:42.171Z,45.63
2018-05-11T19:26:09.801Z,46.51
2018-05-11T19:28:37.533Z,43.46
2018-05-11T19:31:05.177Z,43.55
2018-05-11T19:33:32.864Z,43.58
2018-05-11T19:36:00.490Z,44.70
2018-05-11T19:38:28.173Z,45.05
2018-05-11T19:40:55.847Z,44.46
2018-05-11T19:43:23.458Z,44.24
2018-05-11T19:45:51.244Z,47.71
2018-05-11T19:48:18.862Z,44.48
2018-05-11T19:50:46.704Z,44.94
2018-05-11T19:53:14.374Z,45.07
2018-05-11T19:55:42.229Z,45.63
2018-05-11T19:58:09.835Z,45.46
2018-05-11T20:00:37.512Z,45.90
2018-05-11T20:03:05.115Z,44.64
2018-05-11T20:05:32.789Z,44.73
2018-05-11T20:08:00.398Z,44.82
2018-05-11T20:10:28.053Z,45.06
2018-05-11T20:12:55.670Z,45.37
2018-05-11T20:15:23.319Z,45.47
2018-05-11T20:17:50.955Z,45.71
2018-05-11T20:20:18.837Z,45.97
2018-05-11T20:22:46.453Z,46.86
2018-05-11T20:25:14.078Z,46.21
2018-05-11T20:27:41.735Z,46.56
2018-05-11T20:30:09.338Z,46.89
2018-05-11T20:32:37.010Z,46.44
2018-05-11T20:35:04.660Z,47.04
2018-05-11T20:37:32.363Z,47.04
2018-05-11T20:40:00.081Z,47.48
2018-05-11T20:42:27.730Z,47.07
2018-05-11T20:44:55.381Z,47.91
2018-05-11T20:47:23.093Z,47.17
2018-05-11T20:49:50.729Z,47.72
2018-05-11T20:52:18.368Z,48.75
2018-05-11T20:54:46.021Z,48.53
2018-05-11T20:57:13.710Z,47.95
2018-05-11T20:59:41.321Z,48.25
2018-05-11T21:02:08.972Z,48.22
2018-05-11T21:04:36.693Z,47.50
2018-05-11T21:07:04.351Z,47.77
2018-05-11T21:09:32.001Z,48.08
2018-05-11T21:11:59.608Z,48.17
2018-05-11T21:14:27.278Z,48.16
2018-05-11T21:16:54.889Z,48.23
2018-05-11T21:19:22.561Z,48.73
2018-05-11T21:21:50.377Z,49.09
2018-05-11T21:24:18.028Z,48.82
2018-05-11T21:26:45.639Z,49.08
2018-05-11T21:29:13.270Z,49.31
2018-05-11T21:31:41.005Z,49.28
2018-05-11T21:34:08.882Z,49.17
2018-05-11T21:36:37.007Z,49.30
2018-05-11T21:39:04.647Z,49.22
2018-05-11T21:41:32.373Z,49.21
2018-05-11T21:44:00.018Z,49.36
2018-05-11T21:46:27.659Z,49.34
2018-05-11T21:48:55.298Z,49.61
2018-05-11T21:51:23.001Z,50.29
2018-05-11T21:53:50.693Z,49.68
2018-05-11T21:56:18.328Z,48.30
2018-05-11T21:58:45.943Z,48.79
2018-05-11T22:01:13.605Z,49.32
2018-05-11T22:03:41.234Z,49.90
2018-05-11T22:06:08.947Z,50.38
2018-05-11T22:08:36.561Z,50.98
2018-05-11T22:11:04.231Z,51.04
2018-05-11T22:13:31.894Z,51.31
2018-05-11T22:15:59.514Z,51.85
2018-05-11T22:18:27.134Z,51.97
2018-05-11T22:20:54.770Z,51.95
2018-05-11T22:23:22.357Z,52.17
2018-05-11T22:25:50.015Z,51.74
2018-05-11T22:28:17.734Z,51.29
2018-05-11T22:30:46.919Z,51.18
2018-05-11T22:33:16.455Z,51.25
2018-05-11T22:35:44.180Z,51.84
2018-05-11T22:38:11.953Z,52.40
2018-05-11T22:40:39.670Z,52.88
2018-05-11T22:43:07.996Z,53.47
2018-05-11T22:45:37.127Z,53.89
2018-05-11T22:48:06.147Z,54.27
2018-05-11T22:50:36.456Z,54.76
2018-05-11T22:53:04.126Z,54.78
2018-05-11T22:55:32.207Z,54.95
2018-05-11T22:58:00.288Z,54.94
2018-05-11T23:00:46.829Z,55.09
2018-05-11T23:03:14.524Z,55.02
2018-05-11T23:05:54.563Z,54.91
2018-05-11T23:08:26.256Z,54.64
2018-05-11T23:10:55.291Z,54.82
2018-05-11T23:13:22.975Z,54.58
2018-05-11T23:15:50.941Z,54.23
2018-05-11T23:18:22.375Z,54.31
2018-05-11T23:20:51.425Z,54.02
2018-05-11T23:23:21.879Z,54.38
2018-05-11T23:25:51.029Z,54.44
2018-05-11T23:28:20.068Z,54.27
2018-05-11T23:30:49.079Z,54.44
2018-05-11T23:33:18.757Z,54.09
2018-05-11T23:35:46.828Z,54.19
2018-05-11T23:38:14.678Z,54.07
2018-05-11T23:40:43.128Z,54.25
2018-05-11T23:43:11.245Z,54.32
2018-05-11T23:45:40.943Z,54.52
2018-05-11T23:48:09.926Z,54.54
2018-05-11T23:50:37.901Z,54.72
2018-05-11T23:53:14.785Z,54.95
2018-05-11T23:58:37.221Z,56.58
